createdAt,value
2022-11-08T00:01:07.054Z,98.20
2022-11-08T00:05:27.620Z,98.10
2022-11-08T00:09:48.108Z,98.10
2022-11-08T00:14:02.232Z,98.20
2022-11-08T00:18:05.735Z,98.20
2022-11-08T00:22:07.510Z,98.40
2022-11-08T00:26:09.586Z,98.30
2022-11-08T00:30:11.482Z,98.40
2022-11-08T00:34:13.225Z,98.30
2022-11-08T00:38:15.132Z,98.60
2022-11-08T00:42:16.975Z,98.30
2022-11-08T00:46:20.775Z,98.40
2022-11-08T00:50:22.432Z,98.40
2022-11-08T00:54:24.332Z,98.60
2022-11-08T00:58:27.852Z,98.50
2022-11-08T01:02:29.855Z,98.60
2022-11-08T01:06:31.836Z,98.70
2022-11-08T01:10:33.580Z,98.50
2022-11-08T01:14:35.256Z,98.60
2022-11-08T01:18:37.441Z,99.00
2022-11-08T01:22:39.133Z,98.50
2022-11-08T01:26:40.813Z,98.40
2022-11-08T01:30:44.171Z,98.20
2022-11-08T01:34:45.886Z,98.40
2022-11-08T01:38:48.170Z,98.60
2022-11-08T01:42:50.066Z,98.30
2022-11-08T01:46:51.734Z,98.10
2022-11-08T01:50:56.197Z,98.50
2022-11-08T01:55:06.903Z,98.40
2022-11-08T01:59:12.051Z,98.80
2022-11-08T02:03:17.956Z,98.50
2022-11-08T02:07:19.941Z,98.60
2022-11-08T02:11:21.770Z,98.70
2022-11-08T02:15:25.901Z,98.60
2022-11-08T02:19:44.669Z,98.50
2022-11-08T02:23:46.372Z,98.40
2022-11-08T02:27:48.105Z,98.30
2022-11-08T02:31:49.748Z,98.70
2022-11-08T02:35:56.073Z,98.70
2022-11-08T02:39:57.842Z,98.90
2022-11-08T02:43:59.575Z,98.90
2022-11-08T02:48:01.523Z,99.00
2022-11-08T02:52:04.029Z,98.80
2022-11-08T02:56:05.802Z,98.90
2022-11-08T03:00:08.205Z,98.70
2022-11-08T03:04:09.925Z,98.70
2022-11-08T03:08:11.701Z,98.60
2022-11-08T03:12:13.529Z,98.70
2022-11-08T03:16:15.325Z,98.50
2022-11-08T03:20:19.569Z,98.50
2022-11-08T03:24:21.328Z,98.60
2022-11-08T03:28:23.659Z,98.30
2022-11-08T03:32:26.664Z,98.30
2022-11-08T03:36:28.370Z,98.70
2022-11-08T03:40:30.158Z,98.30
2022-11-08T03:44:32.627Z,98.30
2022-11-08T03:48:34.285Z,98.60
2022-11-08T03:52:49.717Z,98.60
2022-11-08T03:56:51.378Z,98.80
2022-11-08T04:00:53.201Z,98.80
2022-11-08T04:04:54.988Z,98.60
2022-11-08T04:08:58.811Z,98.60
2022-11-08T04:13:20.317Z,98.80
2022-11-08T04:17:42.100Z,98.50
2022-11-08T04:21:49.267Z,98.50
2022-11-08T04:25:56.249Z,99.20
2022-11-08T04:29:57.946Z,99.60
2022-11-08T04:33:59.665Z,99.60
2022-11-08T04:38:02.418Z,99.40
2022-11-08T04:42:04.303Z,99.40
2022-11-08T04:46:08.739Z,99.90
2022-11-08T04:50:10.645Z,99.60
2022-11-08T04:54:12.412Z,99.90
2022-11-08T04:58:14.069Z,99.80
2022-11-08T05:02:15.937Z,99.60
2022-11-08T05:06:23.760Z,99.20
2022-11-08T05:10:25.448Z,99.30
2022-11-08T05:14:27.132Z,99.90
2022-11-08T05:18:29.997Z,99.70
2022-11-08T05:22:50.179Z,99.80
2022-11-08T05:26:51.824Z,99.50
2022-11-08T05:30:55.728Z,99.80
2022-11-08T05:34:57.495Z,99.60
2022-11-08T05:38:59.430Z,99.90
2022-11-08T05:43:01.207Z,99.70
2022-11-08T05:47:03.268Z,99.90
2022-11-08T05:51:05.224Z,99.50
2022-11-08T05:55:07.962Z,98.90
2022-11-08T05:59:09.754Z,99.20
2022-11-08T06:03:11.694Z,99.30
2022-11-08T06:07:13.815Z,99.30
2022-11-08T06:11:18.700Z,99.50
2022-11-08T06:15:20.729Z,99.90
2022-11-08T06:19:22.570Z,99.90
2022-11-08T06:23:24.441Z,99.90
2022-11-08T06:27:26.454Z,99.90
2022-11-08T06:31:28.121Z,99.80
2022-11-08T06:35:29.814Z,99.30
2022-11-08T06:39:31.675Z,99.20
2022-11-08T06:43:34.078Z,99.90
2022-11-08T06:47:35.741Z,99.90
2022-11-08T06:51:37.417Z,99.90
2022-11-08T06:55:39.428Z,99.90
2022-11-08T06:59:41.286Z,99.90
2022-11-08T07:03:42.971Z,99.90
2022-11-08T07:07:44.992Z,99.90
2022-11-08T07:11:46.719Z,99.90
2022-11-08T07:15:48.681Z,99.90
2022-11-08T07:19:50.836Z,99.90
2022-11-08T07:23:52.496Z,99.90
2022-11-08T07:28:02.995Z,99.90
2022-11-08T07:32:05.146Z,99.90
2022-11-08T07:36:07.057Z,99.90
2022-11-08T07:40:10.006Z,99.90
2022-11-08T07:44:11.744Z,99.90
2022-11-08T07:48:13.984Z,99.70
2022-11-08T07:52:16.048Z,99.30
2022-11-08T07:56:17.941Z,99.90
2022-11-08T08:00:19.705Z,99.90
2022-11-08T08:04:21.397Z,99.50
2022-11-08T08:08:23.201Z,99.50
2022-11-08T08:12:24.904Z,99.60
2022-11-08T08:16:26.566Z,99.90
2022-11-08T08:20:29.621Z,99.90
2022-11-08T08:24:31.382Z,99.90
2022-11-08T08:28:33.277Z,99.90
2022-11-08T08:32:35.038Z,99.90
2022-11-08T08:36:36.775Z,99.90
2022-11-08T08:40:38.679Z,99.90
2022-11-08T08:44:40.329Z,99.90
2022-11-08T08:48:42.059Z,99.90
2022-11-08T08:52:43.749Z,99.90
2022-11-08T08:56:45.448Z,99.90
2022-11-08T09:05:10.933Z,99.90
2022-11-08T09:09:12.712Z,99.90
2022-11-08T09:13:14.431Z,99.90
2022-11-08T09:17:16.135Z,99.90
2022-11-08T09:21:17.857Z,99.90
2022-11-08T09:25:19.718Z,99.90
2022-11-08T09:29:21.550Z,99.90
2022-11-08T09:33:23.314Z,99.90
2022-11-08T09:37:25.612Z,99.90
2022-11-08T09:41:36.108Z,99.90
2022-11-08T09:45:46.388Z,99.90
2022-11-08T09:50:18.956Z,99.90
2022-11-08T09:54:35.094Z,99.90
2022-11-08T09:59:02.438Z,99.90
2022-11-08T10:03:04.288Z,99.90
2022-11-08T10:07:23.776Z,99.90
2022-11-08T10:11:47.415Z,99.90
2022-11-08T10:15:55.100Z,99.90
2022-11-08T10:20:06.866Z,99.90
2022-11-08T10:24:39.572Z,99.90
2022-11-08T10:28:50.068Z,99.90
2022-11-08T10:32:55.114Z,99.90
2022-11-08T10:37:03.523Z,99.90
2022-11-08T10:41:28.437Z,99.90
2022-11-08T10:45:30.113Z,99.90
2022-11-08T10:49:33.173Z,99.90
2022-11-08T10:53:43.407Z,99.90
2022-11-08T10:57:45.150Z,99.90
2022-11-08T11:01:50.786Z,99.90
2022-11-08T11:06:18.345Z,99.90
2022-11-08T11:10:29.357Z,99.90
2022-11-08T11:14:31.035Z,99.90
2022-11-08T11:18:34.515Z,99.90
2022-11-08T11:22:36.236Z,99.90
2022-11-08T11:26:48.032Z,99.90
2022-11-08T11:31:00.951Z,99.90
2022-11-08T11:35:05.359Z,99.90
2022-11-08T11:39:23.416Z,99.90
2022-11-08T11:43:45.521Z,99.90
2022-11-08T11:47:53.491Z,99.90
2022-11-08T11:51:56.600Z,99.90
2022-11-08T11:56:07.434Z,99.90
2022-11-08T12:00:12.974Z,99.90
2022-11-08T12:04:47.972Z,99.90
2022-11-08T12:09:23.498Z,99.90
2022-11-08T12:14:01.504Z,99.90
2022-11-08T12:18:21.682Z,99.90
2022-11-08T12:22:59.965Z,99.90
2022-11-08T12:27:29.010Z,99.90
2022-11-08T12:31:35.265Z,99.90
2022-11-08T12:35:51.960Z,99.90
2022-11-08T12:40:01.242Z,99.90
2022-11-08T12:44:23.207Z,99.90
2022-11-08T12:48:39.176Z,99.90
2022-11-08T12:53:17.798Z,99.90
2022-11-08T12:57:22.174Z,99.90
2022-11-08T13:01:24.175Z,99.90
2022-11-08T13:05:33.631Z,99.90
2022-11-08T13:09:58.248Z,99.90
2022-11-08T13:14:00.680Z,99.90
2022-11-08T13:18:09.752Z,99.90
2022-11-08T13:22:31.575Z,99.90
2022-11-08T13:26:41.943Z,99.90
2022-11-08T13:30:44.031Z,99.90
2022-11-08T13:34:59.430Z,99.90
2022-11-08T13:39:03.871Z,99.90
2022-11-08T13:43:24.156Z,99.90
2022-11-08T13:47:34.917Z,99.90
2022-11-08T13:51:41.964Z,99.90
2022-11-08T13:55:43.612Z,99.90
2022-11-08T13:59:45.658Z,99.90
2022-11-08T14:03:47.401Z,99.90
2022-11-08T14:08:14.838Z,99.90
2022-11-08T14:12:43.806Z,99.90
2022-11-08T14:17:01.177Z,99.90
2022-11-08T14:21:04.976Z,99.90
2022-11-08T14:25:14.655Z,99.90
2022-11-08T14:29:18.955Z,99.90
2022-11-08T14:33:22.030Z,99.90
2022-11-08T14:37:27.216Z,99.90
2022-11-08T14:41:30.532Z,99.90
2022-11-08T14:45:32.398Z,99.90
2022-11-08T14:49:36.556Z,99.90
2022-11-08T14:53:50.579Z,99.90
2022-11-08T14:57:52.341Z,99.90
2022-11-08T15:01:54.068Z,99.90
2022-11-08T15:05:59.423Z,99.90
2022-11-08T15:10:10.091Z,99.90
2022-11-08T15:14:19.076Z,99.90
2022-11-08T15:18:38.560Z,99.90
2022-11-08T15:22:40.480Z,99.90
2022-11-08T15:27:05.869Z,99.90
2022-11-08T15:31:13.266Z,99.90
2022-11-08T15:35:22.979Z,99.90
2022-11-08T15:39:32.282Z,99.90
2022-11-08T15:43:38.868Z,99.90
2022-11-08T15:47:46.221Z,99.90
2022-11-08T15:51:49.840Z,99.90
2022-11-08T15:55:56.885Z,99.90
2022-11-08T15:59:58.835Z,99.90
2022-11-08T16:04:00.484Z,99.90
2022-11-08T16:08:02.197Z,99.90
2022-11-08T16:12:04.304Z,99.90
2022-11-08T16:16:15.187Z,99.90
2022-11-08T16:20:27.824Z,99.90
2022-11-08T16:24:29.517Z,99.90
2022-11-08T16:28:36.226Z,99.90
2022-11-08T16:32:37.941Z,99.90
2022-11-08T16:36:39.665Z,99.90
2022-11-08T16:40:41.951Z,99.90
2022-11-08T16:44:44.344Z,99.90
2022-11-08T16:48:49.306Z,99.90
2022-11-08T16:52:51.868Z,99.90
2022-11-08T16:57:13.674Z,99.90
2022-11-08T17:01:27.007Z,99.90
2022-11-08T17:05:28.756Z,99.90
2022-11-08T17:09:30.594Z,99.90
2022-11-08T17:13:37.505Z,99.90
2022-11-08T17:17:43.141Z,99.90
2022-11-08T17:21:45.859Z,99.90
2022-11-08T17:25:47.757Z,99.90
2022-11-08T17:29:49.411Z,99.90
2022-11-08T17:33:51.238Z,99.90
2022-11-08T17:37:53.723Z,99.90
2022-11-08T17:41:55.470Z,99.90
2022-11-08T17:45:58.396Z,99.90
2022-11-08T17:50:00.091Z,99.90
2022-11-08T17:54:04.570Z,99.90
2022-11-08T17:58:06.450Z,99.90
2022-11-08T18:02:09.277Z,99.90
2022-11-08T18:06:14.412Z,99.90
2022-11-08T18:10:16.529Z,99.90
2022-11-08T18:14:27.067Z,99.90
2022-11-08T18:18:30.064Z,99.90
2022-11-08T18:22:32.874Z,99.90
2022-11-08T18:26:34.753Z,99.90
2022-11-08T18:30:36.637Z,99.90
2022-11-08T18:34:38.444Z,99.90
2022-11-08T18:38:41.975Z,99.90
2022-11-08T18:42:43.655Z,99.90
2022-11-08T18:46:45.406Z,99.90
2022-11-08T18:50:50.821Z,99.90
2022-11-08T18:54:52.522Z,99.90
2022-11-08T18:58:54.378Z,99.90
2022-11-08T19:02:56.022Z,99.90
2022-11-08T19:06:57.759Z,99.90
2022-11-08T19:11:03.105Z,99.90
2022-11-08T19:15:05.087Z,99.90
2022-11-08T19:19:06.832Z,99.90
2022-11-08T19:23:08.553Z,99.90
2022-11-08T19:27:10.456Z,99.90
2022-11-08T19:31:14.027Z,99.90
2022-11-08T19:35:24.628Z,99.90
2022-11-08T19:39:26.452Z,99.90
2022-11-08T19:43:28.185Z,99.90
2022-11-08T19:47:29.863Z,99.90
2022-11-08T19:51:36.844Z,99.90
2022-11-08T19:55:38.674Z,99.90
2022-11-08T19:59:40.319Z,99.90
2022-11-08T20:03:42.256Z,99.90
2022-11-08T20:07:49.593Z,99.90
2022-11-08T20:11:51.504Z,99.90
2022-11-08T20:15:54.544Z,99.60
2022-11-08T20:19:56.291Z,99.40
2022-11-08T20:23:58.408Z,99.60
2022-11-08T20:28:02.715Z,99.60
2022-11-08T20:32:04.653Z,99.60
2022-11-08T20:36:11.638Z,99.50
2022-11-08T20:40:14.293Z,99.70
2022-11-08T20:44:16.474Z,99.80
2022-11-08T20:48:18.370Z,99.80
2022-11-08T20:52:22.507Z,99.90
2022-11-08T20:56:25.339Z,99.90
2022-11-08T21:00:52.105Z,99.90
2022-11-08T21:04:48.991Z,99.90
2022-11-08T21:09:01.826Z,99.90
2022-11-08T21:13:05.055Z,99.90
2022-11-08T21:17:21.488Z,99.90
2022-11-08T21:21:29.525Z,99.90
2022-11-08T21:25:32.262Z,99.90
2022-11-08T21:29:34.396Z,99.90
2022-11-08T21:33:36.460Z,99.90
2022-11-08T21:37:38.162Z,99.90
2022-11-08T21:41:40.028Z,99.90
2022-11-08T21:45:41.979Z,99.90
2022-11-08T21:49:43.688Z,99.90
2022-11-08T21:53:54.023Z,99.90
2022-11-08T21:57:56.601Z,99.90
2022-11-08T22:01:58.580Z,99.90
2022-11-08T22:06:00.356Z,99.90
2022-11-08T22:10:02.097Z,99.90
2022-11-08T22:14:04.088Z,99.90
2022-11-08T22:18:15.366Z,99.90
2022-11-08T22:22:19.260Z,99.90
2022-11-08T22:26:21.001Z,99.90
2022-11-08T22:30:22.684Z,99.90
2022-11-08T22:34:24.525Z,99.90
2022-11-08T22:38:27.657Z,99.90
2022-11-08T22:42:29.540Z,99.90
2022-11-08T22:46:31.433Z,99.90
2022-11-08T22:50:33.533Z,99.90
2022-11-08T22:54:35.316Z,99.90
2022-11-08T22:58:42.280Z,99.90
2022-11-08T23:02:46.082Z,99.90
2022-11-08T23:06:47.814Z,99.90
2022-11-08T23:11:08.379Z,99.90
2022-11-08T23:15:29.268Z,99.90
2022-11-08T23:19:49.424Z,99.90
2022-11-08T23:24:09.652Z,99.90
2022-11-08T23:28:32.845Z,99.90
2022-11-08T23:32:35.090Z,99.90
2022-11-08T23:36:36.833Z,99.90
2022-11-08T23:40:57.165Z,99.90
2022-11-08T23:44:58.844Z,99.90
2022-11-08T23:49:01.907Z,99.90
2022-11-08T23:53:03.678Z,99.90
2022-11-08T23:57:05.910Z,99.90
